createdAt,value
2017-10-25T00:00:46.243Z,2.47
2017-10-25T00:03:14.673Z,2.50
2017-10-25T00:05:43.063Z,2.70
2017-10-25T00:08:11.449Z,3.50
2017-10-25T00:10:40.230Z,2.47
2017-10-25T00:13:08.641Z,2.93
2017-10-25T00:15:37.032Z,1.97
2017-10-25T00:18:05.460Z,2.50
2017-10-25T00:20:33.868Z,2.03
2017-10-25T00:23:02.256Z,2.53
2017-10-25T00:25:30.699Z,2.40
2017-10-25T00:27:59.096Z,2.80
2017-10-25T00:30:27.462Z,3.10
2017-10-25T00:32:56.240Z,3.07
2017-10-25T00:35:24.629Z,2.57
2017-10-25T00:37:53.023Z,1.80
2017-10-25T00:40:21.435Z,2.20
2017-10-25T00:42:49.824Z,1.97
2017-10-25T00:45:18.982Z,2.03
2017-10-25T00:47:47.471Z,2.07
2017-10-25T00:50:16.131Z,2.30
2017-10-25T00:52:44.515Z,2.30
2017-10-25T00:55:12.944Z,3.37
2017-10-25T00:57:42.106Z,2.47
2017-10-25T01:00:10.517Z,3.17
2017-10-25T01:02:40.064Z,3.00
2017-10-25T01:05:08.458Z,2.20
2017-10-25T01:07:36.854Z,2.13
2017-10-25T01:10:05.407Z,2.13
2017-10-25T01:12:33.815Z,2.17
2017-10-25T01:15:02.220Z,2.03
2017-10-25T01:17:31.438Z,2.10
2017-10-25T01:19:59.858Z,1.70
2017-10-25T01:22:28.287Z,2.10
2017-10-25T01:24:57.755Z,2.50
2017-10-25T01:27:26.179Z,1.80
2017-10-25T01:29:54.612Z,2.40
2017-10-25T01:32:23.075Z,2.93
2017-10-25T01:34:51.508Z,2.23
2017-10-25T01:37:20.702Z,2.20
2017-10-25T01:39:49.921Z,2.13
2017-10-25T01:42:18.352Z,2.10
2017-10-25T01:44:46.775Z,2.37
2017-10-25T01:47:15.546Z,2.17
2017-10-25T01:49:44.748Z,3.20
2017-10-25T01:52:13.943Z,2.30
2017-10-25T01:54:43.436Z,2.63
2017-10-25T01:57:12.637Z,2.73
2017-10-25T01:59:41.831Z,2.30
2017-10-25T02:02:11.116Z,2.27
2017-10-25T02:04:39.546Z,1.93
2017-10-25T02:07:07.983Z,5.23
2017-10-25T02:09:36.438Z,2.77
2017-10-25T02:12:04.879Z,2.40
2017-10-25T02:14:33.308Z,2.63
2017-10-25T02:17:01.775Z,2.53
2017-10-25T02:19:30.204Z,2.50
2017-10-25T02:21:59.406Z,2.77
2017-10-25T02:24:27.863Z,2.43
2017-10-25T02:26:56.309Z,2.07
2017-10-25T02:29:24.685Z,2.60
2017-10-25T02:31:53.120Z,2.10
2017-10-25T02:34:21.516Z,2.23
2017-10-25T02:36:49.910Z,2.23
2017-10-25T02:39:18.344Z,2.57
2017-10-25T02:41:47.499Z,2.13
2017-10-25T02:44:15.888Z,3.13
2017-10-25T02:46:44.322Z,1.70
2017-10-25T02:49:12.726Z,3.20
2017-10-25T02:51:41.125Z,2.20
2017-10-25T02:54:09.877Z,2.60
2017-10-25T02:56:38.284Z,1.97
2017-10-25T02:59:06.677Z,2.50
2017-10-25T03:01:35.390Z,2.73
2017-10-25T03:04:04.557Z,2.37
2017-10-25T03:06:32.957Z,2.63
2017-10-25T03:09:02.122Z,1.57
2017-10-25T03:11:30.525Z,2.30
2017-10-25T03:13:58.922Z,1.93
2017-10-25T03:16:28.464Z,1.80
2017-10-25T03:18:56.866Z,1.87
2017-10-25T03:21:25.426Z,2.10
2017-10-25T03:23:54.208Z,1.70
2017-10-25T03:26:22.632Z,2.23
2017-10-25T03:28:51.028Z,2.10
2017-10-25T03:31:20.234Z,1.80
2017-10-25T03:33:49.412Z,2.00
2017-10-25T03:36:17.815Z,2.20
2017-10-25T03:38:46.989Z,3.90
2017-10-25T03:41:15.382Z,2.00
2017-10-25T03:43:44.530Z,1.80
2017-10-25T03:46:13.321Z,2.03
2017-10-25T03:48:41.726Z,1.70
2017-10-25T03:51:10.122Z,2.23
2017-10-25T03:53:39.561Z,1.80
2017-10-25T03:56:07.956Z,2.27
2017-10-25T03:58:36.348Z,2.20
2017-10-25T04:01:04.777Z,1.73
2017-10-25T04:03:33.165Z,1.73
2017-10-25T04:06:01.574Z,1.90
2017-10-25T04:08:30.343Z,3.17
2017-10-25T04:10:58.719Z,2.03
2017-10-25T04:13:27.116Z,1.83
2017-10-25T04:15:55.576Z,1.70
2017-10-25T04:18:23.959Z,2.37
2017-10-25T04:20:52.342Z,2.40
2017-10-25T04:23:21.126Z,2.03
2017-10-25T04:25:49.518Z,2.10
2017-10-25T04:28:17.908Z,2.20
2017-10-25T04:30:46.326Z,2.10
2017-10-25T04:33:15.635Z,2.60
2017-10-25T04:35:44.068Z,1.93
2017-10-25T04:38:12.475Z,2.30
2017-10-25T04:40:41.641Z,2.27
2017-10-25T04:43:10.031Z,2.20
2017-10-25T04:45:38.781Z,1.70
2017-10-25T04:48:07.187Z,1.70
2017-10-25T04:50:35.594Z,1.83
2017-10-25T04:53:04.022Z,2.23
2017-10-25T04:55:32.418Z,2.50
2017-10-25T04:58:00.814Z,2.57
2017-10-25T05:00:29.241Z,2.00
2017-10-25T05:02:57.623Z,2.03
2017-10-25T05:05:26.033Z,2.80
2017-10-25T05:07:54.479Z,2.57
2017-10-25T05:10:22.939Z,3.10
2017-10-25T05:12:52.476Z,1.97
2017-10-25T05:15:20.887Z,1.83
2017-10-25T05:17:49.320Z,2.60
2017-10-25T05:20:17.707Z,2.43
2017-10-25T05:22:46.127Z,2.00
2017-10-25T05:25:14.524Z,2.00
2017-10-25T05:27:42.936Z,1.90
2017-10-25T05:30:11.728Z,2.40
2017-10-25T05:32:40.134Z,2.90
2017-10-25T05:35:08.511Z,3.60
2017-10-25T05:37:36.931Z,2.00
2017-10-25T05:40:06.282Z,2.13
2017-10-25T05:42:34.678Z,2.03
2017-10-25T05:45:03.107Z,2.20
2017-10-25T05:47:31.499Z,1.90
2017-10-25T05:49:59.900Z,2.00
2017-10-25T05:52:28.319Z,2.43
2017-10-25T05:54:56.715Z,2.30
2017-10-25T05:57:25.877Z,2.37
2017-10-25T05:59:54.301Z,2.40
2017-10-25T06:02:22.683Z,2.30
2017-10-25T06:04:51.069Z,2.67
2017-10-25T06:07:19.500Z,1.80
2017-10-25T06:09:47.897Z,1.87
2017-10-25T06:12:17.099Z,2.53
2017-10-25T06:14:46.627Z,2.43
2017-10-25T06:17:15.018Z,1.63
2017-10-25T06:19:43.403Z,2.03
2017-10-25T06:22:11.813Z,1.80
2017-10-25T06:24:40.267Z,1.70
2017-10-25T06:27:08.709Z,1.60
2017-10-25T06:29:38.228Z,1.47
2017-10-25T06:32:06.763Z,1.60
2017-10-25T06:34:35.150Z,1.70
2017-10-25T06:37:03.583Z,1.83
2017-10-25T06:39:31.975Z,1.57
2017-10-25T06:42:00.358Z,1.57
2017-10-25T06:44:28.784Z,1.80
2017-10-25T06:46:57.936Z,1.70
2017-10-25T06:49:26.324Z,1.40
2017-10-25T06:51:54.754Z,1.70
2017-10-25T06:54:23.155Z,4.43
2017-10-25T06:56:51.555Z,2.87
2017-10-25T06:59:19.987Z,2.27
2017-10-25T07:01:48.366Z,2.23
2017-10-25T07:04:16.761Z,2.00
2017-10-25T07:06:45.177Z,2.80
2017-10-25T07:09:13.570Z,1.70
2017-10-25T07:11:41.971Z,1.80
2017-10-25T07:14:11.155Z,2.07
2017-10-25T07:16:40.319Z,2.87
2017-10-25T07:19:08.744Z,1.80
2017-10-25T07:21:38.282Z,2.53
2017-10-25T07:24:06.681Z,2.17
2017-10-25T07:26:35.067Z,1.70
2017-10-25T07:29:03.809Z,1.50
2017-10-25T07:31:32.206Z,1.80
2017-10-25T07:34:00.581Z,1.73
2017-10-25T07:36:29.018Z,2.13
2017-10-25T07:38:58.159Z,1.50
2017-10-25T07:41:26.562Z,1.80
2017-10-25T07:43:54.983Z,1.50
2017-10-25T07:46:24.131Z,1.97
2017-10-25T07:48:52.537Z,3.17
2017-10-25T07:51:20.961Z,1.50
2017-10-25T07:53:49.369Z,1.50
2017-10-25T07:56:17.754Z,2.03
2017-10-25T07:58:46.490Z,1.50
2017-10-25T08:01:14.882Z,1.60
2017-10-25T08:03:43.282Z,1.60
2017-10-25T08:06:11.700Z,1.40
2017-10-25T08:08:40.850Z,1.80
2017-10-25T08:11:09.255Z,1.80
2017-10-25T08:13:37.994Z,1.40
2017-10-25T08:16:06.395Z,1.50
2017-10-25T08:18:34.787Z,1.47
2017-10-25T08:21:03.198Z,1.50
2017-10-25T08:23:32.372Z,1.40
2017-10-25T08:26:00.780Z,4.50
2017-10-25T08:28:30.323Z,2.80
2017-10-25T08:30:58.720Z,1.47
2017-10-25T08:33:27.115Z,2.00
2017-10-25T08:35:55.854Z,1.47
2017-10-25T08:38:24.255Z,1.77
2017-10-25T08:40:52.645Z,1.83
2017-10-25T08:43:21.081Z,1.30
2017-10-25T08:45:49.480Z,1.10
2017-10-25T08:48:17.879Z,1.40
2017-10-25T08:50:46.649Z,1.40
2017-10-25T08:53:15.043Z,1.30
2017-10-25T08:55:43.449Z,1.83
2017-10-25T08:58:11.868Z,1.73
2017-10-25T09:00:40.262Z,2.63
2017-10-25T09:03:09.055Z,2.00
2017-10-25T09:05:37.487Z,2.33
2017-10-25T09:08:06.647Z,2.00
2017-10-25T09:10:35.038Z,1.70
2017-10-25T09:13:03.470Z,1.90
2017-10-25T09:15:31.863Z,2.10
2017-10-25T09:18:00.251Z,2.37
2017-10-25T09:20:28.957Z,1.70
2017-10-25T09:22:57.355Z,2.50
2017-10-25T09:25:25.750Z,1.93
2017-10-25T09:27:55.328Z,3.10
2017-10-25T09:30:23.719Z,2.57
2017-10-25T09:32:52.111Z,2.63
2017-10-25T09:35:21.296Z,2.13
2017-10-25T09:37:49.695Z,1.60
2017-10-25T09:40:18.852Z,3.17
2017-10-25T09:42:47.271Z,2.10
2017-10-25T09:45:15.672Z,1.53
2017-10-25T09:47:44.076Z,2.30
2017-10-25T09:50:12.514Z,2.77
2017-10-25T09:52:40.913Z,3.10
2017-10-25T09:55:09.312Z,3.07
2017-10-25T09:57:38.076Z,3.80
2017-10-25T10:00:06.469Z,2.40
2017-10-25T10:02:34.850Z,2.50
2017-10-25T10:05:03.267Z,1.80
2017-10-25T10:07:31.671Z,1.57
2017-10-25T10:10:00.859Z,2.83
2017-10-25T10:12:30.043Z,2.80
2017-10-25T10:14:58.438Z,1.60
2017-10-25T10:17:27.591Z,2.93
2017-10-25T10:19:56.355Z,1.70
2017-10-25T10:22:24.753Z,2.17
2017-10-25T10:24:53.149Z,1.40
2017-10-25T10:27:21.575Z,2.67
2017-10-25T10:29:49.962Z,3.97
2017-10-25T10:32:18.362Z,1.53
2017-10-25T10:34:46.781Z,1.60
2017-10-25T10:37:15.182Z,2.30
2017-10-25T10:39:43.579Z,1.40
2017-10-25T10:42:12.004Z,1.83
2017-10-25T10:44:40.404Z,2.17
2017-10-25T10:47:09.562Z,2.40
2017-10-25T10:49:38.079Z,2.57
2017-10-25T10:52:07.242Z,1.50
2017-10-25T10:54:35.698Z,1.37
2017-10-25T10:57:04.484Z,2.00
2017-10-25T10:59:32.883Z,2.20
2017-10-25T11:02:01.288Z,1.63
2017-10-25T11:04:30.029Z,2.20
2017-10-25T11:06:58.444Z,2.43
2017-10-25T11:09:26.840Z,2.13
2017-10-25T11:11:55.298Z,1.40
2017-10-25T11:14:23.723Z,2.33
2017-10-25T11:16:52.115Z,1.77
2017-10-25T11:19:20.534Z,2.63
2017-10-25T11:21:48.954Z,1.30
2017-10-25T11:24:18.110Z,1.53
2017-10-25T11:26:46.524Z,2.47
2017-10-25T11:29:15.691Z,1.97
2017-10-25T11:31:44.111Z,1.70
2017-10-25T11:34:12.615Z,1.57
2017-10-25T11:36:41.023Z,1.63
2017-10-25T11:39:09.510Z,1.50
2017-10-25T11:41:37.915Z,1.73
2017-10-25T11:44:07.073Z,2.00
2017-10-25T11:46:35.468Z,2.00
2017-10-25T11:49:03.886Z,1.43
2017-10-25T11:51:32.274Z,2.17
2017-10-25T11:54:00.663Z,2.03
2017-10-25T11:56:29.094Z,1.60
2017-10-25T11:58:57.492Z,1.83
2017-10-25T12:01:26.683Z,1.70
2017-10-25T12:03:56.216Z,3.73
2017-10-25T12:06:24.709Z,1.60
2017-10-25T12:08:53.106Z,1.70
2017-10-25T12:11:21.541Z,1.33
2017-10-25T12:13:49.953Z,1.47
2017-10-25T12:16:18.355Z,2.20
2017-10-25T12:18:47.140Z,4.97
2017-10-25T12:21:15.592Z,1.70
2017-10-25T12:23:43.996Z,1.53
2017-10-25T12:26:12.696Z,1.97
2017-10-25T12:28:41.107Z,4.60
2017-10-25T12:31:10.266Z,2.47
2017-10-25T12:33:38.681Z,1.50
2017-10-25T12:36:07.080Z,2.50
2017-10-25T12:38:35.475Z,2.07
2017-10-25T12:41:04.672Z,3.50
2017-10-25T12:43:33.835Z,1.70
2017-10-25T12:46:02.229Z,2.90
2017-10-25T12:48:30.654Z,5.23
2017-10-25T12:50:59.046Z,2.03
2017-10-25T12:53:27.440Z,2.07
2017-10-25T12:55:55.877Z,2.20
2017-10-25T12:58:24.278Z,1.77
2017-10-25T13:00:52.670Z,1.73
2017-10-25T13:03:21.095Z,2.40
2017-10-25T13:05:50.247Z,4.47
2017-10-25T13:08:18.664Z,1.50
2017-10-25T13:10:48.132Z,1.90
2017-10-25T13:13:37.003Z,2.17
2017-10-25T13:29:24.522Z,3.00
2017-10-25T13:31:52.922Z,2.80
2017-10-25T13:34:22.100Z,2.57
2017-10-25T13:36:50.541Z,2.97
2017-10-25T13:39:18.944Z,2.30
2017-10-25T13:41:47.347Z,2.17
2017-10-25T13:44:16.079Z,2.87
2017-10-25T13:46:44.486Z,4.30
2017-10-25T13:51:40.773Z,2.60
2017-10-25T13:54:09.927Z,2.10
2017-10-25T13:56:38.323Z,3.13
2017-10-25T13:59:06.740Z,3.10
2017-10-25T14:01:35.130Z,2.33
2017-10-25T14:04:03.527Z,1.93
2017-10-25T14:06:32.218Z,6.10
2017-10-25T14:09:00.619Z,1.77
2017-10-25T14:11:29.024Z,2.73
2017-10-25T14:13:58.203Z,1.87
2017-10-25T14:16:26.598Z,4.10
2017-10-25T14:18:56.378Z,5.33
2017-10-25T14:21:25.132Z,1.87
2017-10-25T14:23:53.522Z,5.80
2017-10-25T14:26:39.891Z,2.43
2017-10-25T14:29:09.051Z,4.78
2017-10-25T14:31:37.446Z,1.50
2017-10-25T14:34:05.869Z,5.40
2017-10-25T14:38:09.332Z,2.53
2017-10-25T14:44:29.343Z,2.37
2017-10-25T14:48:32.743Z,3.47
2017-10-25T14:52:36.173Z,5.93
2017-10-25T14:56:39.639Z,2.20
2017-10-25T15:00:43.067Z,2.10
2017-10-25T15:04:46.454Z,2.47
2017-10-25T15:08:49.904Z,3.40
2017-10-25T15:12:54.081Z,3.43
2017-10-25T15:16:57.499Z,3.00
2017-10-25T15:21:00.915Z,3.77
2017-10-25T15:25:04.345Z,3.37
2017-10-25T15:29:07.740Z,1.70
2017-10-25T15:33:12.677Z,2.23
2017-10-25T15:37:16.085Z,2.90
2017-10-25T15:52:16.367Z,3.90
2017-10-25T15:56:19.777Z,10.70
2017-10-25T16:09:51.571Z,9.67
2017-10-25T16:13:55.053Z,7.43
2017-10-25T16:17:59.557Z,14.00
2017-10-25T16:22:03.082Z,7.70
2017-10-25T16:26:06.585Z,13.03
2017-10-25T16:30:10.038Z,10.23
2017-10-25T16:34:13.505Z,7.47
2017-10-25T16:38:16.984Z,10.47
2017-10-25T16:42:20.467Z,14.87
2017-10-25T16:46:24.055Z,12.63
2017-10-25T16:50:27.580Z,11.40
2017-10-25T16:54:31.018Z,9.40
2017-10-25T16:58:34.832Z,9.10
2017-10-25T17:02:38.257Z,10.47
2017-10-25T17:06:41.737Z,12.33
2017-10-25T17:10:45.212Z,10.87
2017-10-25T17:14:48.939Z,11.70
2017-10-25T17:18:53.170Z,26.37
2017-10-25T17:22:56.792Z,11.00
2017-10-25T17:27:00.342Z,9.47
2017-10-25T17:31:04.651Z,10.07
2017-10-25T17:35:08.099Z,10.10
2017-10-25T17:39:11.561Z,8.00
2017-10-25T17:43:15.827Z,8.97
2017-10-25T17:47:19.413Z,10.30
2017-10-25T17:51:23.066Z,11.20
2017-10-25T17:55:27.349Z,9.27
2017-10-25T17:59:30.799Z,9.20
2017-10-25T18:03:34.295Z,8.50
2017-10-25T18:07:37.752Z,12.70
2017-10-25T18:11:41.229Z,10.80
2017-10-25T18:15:45.488Z,8.80
2017-10-25T18:19:49.778Z,8.67
2017-10-25T18:23:53.254Z,9.17
2017-10-25T18:27:57.517Z,13.20
2017-10-25T18:32:01.837Z,8.33
2017-10-25T18:36:05.359Z,9.10
2017-10-25T18:40:09.006Z,17.10
2017-10-25T18:44:12.505Z,12.27
2017-10-25T18:48:16.352Z,12.07
2017-10-25T18:52:20.265Z,14.73
2017-10-25T18:56:23.751Z,15.20
2017-10-25T19:00:28.200Z,7.73
2017-10-25T19:04:31.665Z,7.60
2017-10-25T19:08:36.516Z,9.50
2017-10-25T19:12:39.971Z,10.40
2017-10-25T19:16:43.725Z,9.50
2017-10-25T19:20:47.402Z,8.17
2017-10-25T19:24:51.786Z,8.60
2017-10-25T19:28:55.272Z,13.50
2017-10-25T19:32:58.919Z,9.13
2017-10-25T19:37:03.147Z,11.10
2017-10-25T19:41:06.668Z,12.60
2017-10-25T19:45:10.114Z,8.77
2017-10-25T19:49:13.558Z,10.30
2017-10-25T19:53:16.976Z,11.13
2017-10-25T19:57:21.200Z,12.27
2017-10-25T20:01:25.385Z,12.17
2017-10-25T20:05:28.829Z,11.77
2017-10-25T20:09:32.214Z,12.93
2017-10-25T20:13:35.712Z,15.97
2017-10-25T20:17:39.188Z,16.20
2017-10-25T20:21:42.646Z,14.10
2017-10-25T20:25:46.081Z,12.80
2017-10-25T20:29:50.297Z,14.00
2017-10-25T20:33:54.491Z,13.80
2017-10-25T20:37:58.017Z,17.07
2017-10-25T20:42:01.438Z,16.93
2017-10-25T20:46:05.923Z,19.67
2017-10-25T20:50:09.351Z,18.33
2017-10-25T20:54:12.823Z,16.80
2017-10-25T20:58:16.254Z,18.60
2017-10-25T21:02:20.015Z,23.37
2017-10-25T21:06:23.445Z,21.97
2017-10-25T21:10:26.884Z,25.60
2017-10-25T21:14:30.303Z,22.83
2017-10-25T21:18:33.769Z,23.80
2017-10-25T21:22:37.204Z,22.10
2017-10-25T21:26:40.676Z,25.13
2017-10-25T21:30:44.101Z,21.63
2017-10-25T21:34:47.560Z,24.87
2017-10-25T21:38:51.761Z,23.13
2017-10-25T21:42:55.223Z,27.00
2017-10-25T21:46:58.639Z,29.50
2017-10-25T21:51:02.108Z,31.10
2017-10-25T21:55:05.529Z,33.70
2017-10-25T21:59:09.000Z,27.00
2017-10-25T22:03:12.422Z,35.33
2017-10-25T22:07:15.908Z,36.13
2017-10-25T22:11:19.331Z,33.20
2017-10-25T22:15:23.552Z,32.67
2017-10-25T22:19:27.752Z,39.20
2017-10-25T22:23:31.227Z,31.40
2017-10-25T22:27:34.653Z,37.60
2017-10-25T22:31:38.126Z,38.03
2017-10-25T22:35:41.544Z,38.30
2017-10-25T22:39:45.108Z,39.53
2017-10-25T22:43:49.292Z,46.30
2017-10-25T22:47:52.732Z,49.10
2017-10-25T22:51:56.155Z,49.57
2017-10-25T22:56:00.365Z,50.17
2017-10-25T23:00:03.756Z,44.40
2017-10-25T23:04:07.199Z,41.60
2017-10-25T23:08:11.382Z,43.27
2017-10-25T23:12:14.818Z,41.37
2017-10-25T23:16:18.980Z,46.93
2017-10-25T23:20:22.692Z,49.13
2017-10-25T23:24:26.104Z,51.70
2017-10-25T23:28:29.820Z,44.93
2017-10-25T23:32:33.231Z,53.27
2017-10-25T23:36:37.020Z,57.37
2017-10-25T23:40:40.412Z,58.67
2017-10-25T23:44:44.953Z,66.07
2017-10-25T23:48:48.370Z,61.23
2017-10-25T23:52:51.832Z,46.63
2017-10-25T23:56:55.323Z,57.67
